createdAt,value
2019-05-26T00:02:09.483Z,12.20
2019-05-26T00:04:35.559Z,12.20
2019-05-26T00:07:01.649Z,12.20
2019-05-26T00:09:27.715Z,12.10
2019-05-26T00:11:53.800Z,12.10
2019-05-26T00:14:19.898Z,12.10
2019-05-26T00:16:46.065Z,12.20
2019-05-26T00:19:12.151Z,12.20
2019-05-26T00:21:38.398Z,12.20
2019-05-26T00:24:04.477Z,12.20
2019-05-26T00:26:30.558Z,12.20
2019-05-26T00:28:56.730Z,12.20
2019-05-26T00:31:22.812Z,12.20
2019-05-26T00:33:48.904Z,12.20
2019-05-26T00:36:14.963Z,12.20
2019-05-26T00:38:41.050Z,12.10
2019-05-26T00:41:07.116Z,12.10
2019-05-26T00:43:33.199Z,12.00
2019-05-26T00:45:59.256Z,12.10
2019-05-26T00:48:25.338Z,12.20
2019-05-26T00:50:51.416Z,12.10
2019-05-26T00:53:17.495Z,12.20
2019-05-26T00:55:43.564Z,12.20
2019-05-26T00:58:09.653Z,12.20
2019-05-26T01:00:38.124Z,12.30
2019-05-26T01:03:04.203Z,12.20
2019-05-26T01:05:30.267Z,12.20
2019-05-26T01:08:05.667Z,12.20
2019-05-26T01:10:24.344Z,12.10
2019-05-26T01:12:50.428Z,12.00
2019-05-26T01:15:16.719Z,11.90
2019-05-26T01:17:42.804Z,11.90
2019-05-26T01:20:09.875Z,11.90
2019-05-26T01:22:36.172Z,11.90
2019-05-26T01:25:05.236Z,11.90
2019-05-26T01:27:31.391Z,11.90
2019-05-26T01:29:57.596Z,11.80
2019-05-26T01:32:23.677Z,11.80
2019-05-26T01:34:49.761Z,11.90
2019-05-26T01:37:16.144Z,11.80
2019-05-26T01:39:42.234Z,11.70
2019-05-26T01:42:08.496Z,11.80
2019-05-26T01:44:34.700Z,11.90
2019-05-26T01:47:00.773Z,11.90
2019-05-26T01:49:26.879Z,11.90
2019-05-26T01:51:52.962Z,11.90
2019-05-26T01:54:19.155Z,11.90
2019-05-26T01:56:45.216Z,11.90
2019-05-26T01:59:11.307Z,11.90
2019-05-26T02:01:37.371Z,11.80
2019-05-26T02:04:03.560Z,11.80
2019-05-26T02:06:29.632Z,11.80
2019-05-26T02:08:55.729Z,11.70
2019-05-26T02:11:21.834Z,11.90
2019-05-26T02:13:48.006Z,11.90
2019-05-26T02:16:14.088Z,11.90
2019-05-26T02:18:40.263Z,11.90
2019-05-26T02:21:06.548Z,11.90
2019-05-26T02:23:32.780Z,11.90
2019-05-26T02:25:58.917Z,11.90
2019-05-26T02:28:25.104Z,11.90
2019-05-26T02:30:51.281Z,11.80
2019-05-26T02:33:17.383Z,11.80
2019-05-26T02:35:43.461Z,11.70
2019-05-26T02:38:09.546Z,11.60
2019-05-26T02:40:35.724Z,11.70
2019-05-26T02:43:02.210Z,11.80
2019-05-26T02:45:28.292Z,11.90
2019-05-26T02:47:54.467Z,12.00
2019-05-26T02:50:21.374Z,11.90
2019-05-26T02:52:47.524Z,12.00
2019-05-26T02:55:14.511Z,11.90
2019-05-26T02:57:40.569Z,12.00
2019-05-26T03:00:08.472Z,12.10
2019-05-26T03:02:34.624Z,12.00
2019-05-26T03:05:01.126Z,11.90
2019-05-26T03:07:27.995Z,11.80
2019-05-26T03:09:54.282Z,11.90
2019-05-26T03:12:21.662Z,11.80
2019-05-26T03:14:50.656Z,11.70
2019-05-26T03:17:19.426Z,11.70
2019-05-26T03:19:47.516Z,11.60
2019-05-26T03:22:17.384Z,11.70
2019-05-26T03:24:47.272Z,11.80
2019-05-26T03:27:13.349Z,11.90
2019-05-26T03:29:39.426Z,12.00
2019-05-26T03:32:05.501Z,11.90
2019-05-26T03:34:31.689Z,11.80
2019-05-26T03:36:57.861Z,11.60
2019-05-26T03:39:42.618Z,11.70
2019-05-26T03:41:51.934Z,11.70
2019-05-26T03:44:18.024Z,11.80
2019-05-26T03:46:44.091Z,11.80
2019-05-26T03:49:10.165Z,11.90
2019-05-26T03:51:36.253Z,11.90
2019-05-26T03:54:02.617Z,11.90
2019-05-26T03:56:29.014Z,12.00
2019-05-26T03:58:55.881Z,12.00
2019-05-26T04:01:21.939Z,12.10
2019-05-26T04:03:48.026Z,12.20
2019-05-26T04:06:14.185Z,12.10
2019-05-26T04:08:40.297Z,12.10
2019-05-26T04:11:06.466Z,12.00
2019-05-26T04:13:32.648Z,11.90
2019-05-26T04:15:58.861Z,12.00
2019-05-26T04:18:24.922Z,11.90
2019-05-26T04:20:51.017Z,12.00
2019-05-26T04:23:17.157Z,12.00
2019-05-26T04:25:43.350Z,12.00
2019-05-26T04:28:09.437Z,12.10
2019-05-26T04:30:35.511Z,12.10
2019-05-26T04:33:01.594Z,12.20
2019-05-26T04:35:27.765Z,12.20
2019-05-26T04:37:53.945Z,12.40
2019-05-26T04:40:27.084Z,12.40
2019-05-26T04:42:47.999Z,12.50
2019-05-26T04:45:14.084Z,12.60
2019-05-26T04:47:40.767Z,12.80
2019-05-26T04:50:07.940Z,12.80
2019-05-26T04:52:34.011Z,12.90
2019-05-26T04:55:00.095Z,12.90
2019-05-26T04:57:26.165Z,12.70
2019-05-26T04:59:52.257Z,12.60
2019-05-26T05:02:18.424Z,12.80
2019-05-26T05:04:44.586Z,12.80
2019-05-26T05:07:10.671Z,12.80
2019-05-26T05:09:36.779Z,12.80
2019-05-26T05:12:03.366Z,12.80
2019-05-26T05:14:29.429Z,12.90
2019-05-26T05:16:55.510Z,13.00
2019-05-26T05:19:21.571Z,13.10
2019-05-26T05:21:47.651Z,13.00
2019-05-26T05:24:13.711Z,13.10
2019-05-26T05:26:39.796Z,13.20
2019-05-26T05:29:05.860Z,13.40
2019-05-26T05:31:31.947Z,13.40
2019-05-26T05:33:58.008Z,13.50
2019-05-26T05:36:24.103Z,13.50
2019-05-26T05:38:50.255Z,13.50
2019-05-26T05:41:16.336Z,13.50
2019-05-26T05:43:42.399Z,13.50
2019-05-26T05:46:08.485Z,13.40
2019-05-26T05:48:34.564Z,13.40
2019-05-26T05:51:00.645Z,13.30
2019-05-26T05:53:26.724Z,13.30
2019-05-26T05:55:52.806Z,13.40
2019-05-26T05:58:18.872Z,13.40
2019-05-26T06:00:45.764Z,13.40
2019-05-26T06:03:11.831Z,13.30
2019-05-26T06:05:37.928Z,13.30
2019-05-26T06:08:04.031Z,13.20
2019-05-26T06:10:30.115Z,13.30
2019-05-26T06:12:56.180Z,13.40
2019-05-26T06:15:22.275Z,13.40
2019-05-26T06:17:48.409Z,13.60
2019-05-26T06:20:14.831Z,13.60
2019-05-26T06:22:40.991Z,13.60
2019-05-26T06:25:07.198Z,13.80
2019-05-26T06:27:33.331Z,13.90
2019-05-26T06:29:59.513Z,14.00
2019-05-26T06:32:25.705Z,14.30
2019-05-26T06:34:51.888Z,14.30
2019-05-26T06:37:17.968Z,14.40
2019-05-26T06:39:44.036Z,14.70
2019-05-26T06:42:12.939Z,14.90
2019-05-26T06:44:52.546Z,15.10
2019-05-26T06:47:06.136Z,15.30
2019-05-26T06:49:32.293Z,15.40
2019-05-26T06:51:58.353Z,15.50
2019-05-26T06:54:24.435Z,15.60
2019-05-26T06:56:50.503Z,15.60
2019-05-26T06:59:16.671Z,15.50
2019-05-26T07:01:42.793Z,15.40
2019-05-26T07:04:08.883Z,15.30
2019-05-26T07:06:34.976Z,15.40
2019-05-26T07:09:01.078Z,15.50
2019-05-26T07:11:27.234Z,15.40
2019-05-26T07:13:53.303Z,15.40
2019-05-26T07:16:36.547Z,15.60
2019-05-26T07:18:47.356Z,15.70
2019-05-26T07:21:13.457Z,16.00
2019-05-26T07:23:39.624Z,16.30
2019-05-26T07:26:05.711Z,16.70
2019-05-26T07:28:31.787Z,17.00
2019-05-26T07:30:57.872Z,17.20
2019-05-26T07:33:23.951Z,17.30
2019-05-26T07:35:50.160Z,17.10
2019-05-26T07:38:16.321Z,16.90
2019-05-26T07:40:42.381Z,16.80
2019-05-26T07:43:08.592Z,16.80
2019-05-26T07:45:34.655Z,16.80
2019-05-26T07:48:00.729Z,16.90
2019-05-26T07:50:26.812Z,16.70
2019-05-26T07:52:52.878Z,16.60
2019-05-26T07:55:18.969Z,16.80
2019-05-26T07:57:45.032Z,17.10
2019-05-26T08:00:11.518Z,17.10
2019-05-26T08:02:37.615Z,17.20
2019-05-26T08:05:05.158Z,17.20
2019-05-26T08:07:31.392Z,17.30
2019-05-26T08:09:57.455Z,17.60
2019-05-26T08:12:28.124Z,17.70
2019-05-26T08:14:51.605Z,17.70
2019-05-26T08:17:17.807Z,17.50
2019-05-26T08:19:43.881Z,17.20
2019-05-26T08:22:09.968Z,17.00
2019-05-26T08:24:36.057Z,17.00
2019-05-26T08:27:02.535Z,16.80
2019-05-26T08:29:28.613Z,16.60
2019-05-26T08:31:54.795Z,16.60
2019-05-26T08:34:20.871Z,16.70
2019-05-26T08:36:46.971Z,16.70
2019-05-26T08:39:13.042Z,16.80
2019-05-26T08:41:39.099Z,17.30
2019-05-26T08:44:05.279Z,17.60
2019-05-26T08:46:31.343Z,17.60
2019-05-26T08:48:57.419Z,17.70
2019-05-26T08:51:23.492Z,18.10
2019-05-26T08:53:49.581Z,18.10
2019-05-26T08:56:15.640Z,18.00
2019-05-26T08:58:41.727Z,18.10
2019-05-26T09:01:07.791Z,18.00
2019-05-26T09:03:33.929Z,18.00
2019-05-26T09:05:59.997Z,18.30
2019-05-26T09:08:26.061Z,18.50
2019-05-26T09:10:52.123Z,19.00
2019-05-26T09:13:18.160Z,19.50
2019-05-26T09:15:44.248Z,19.60
2019-05-26T09:18:10.317Z,19.80
2019-05-26T09:20:36.370Z,20.30
2019-05-26T09:23:02.459Z,20.50
2019-05-26T09:25:28.615Z,20.80
2019-05-26T09:27:54.703Z,20.70
2019-05-26T09:30:20.970Z,20.50
2019-05-26T09:32:47.166Z,20.60
2019-05-26T09:35:13.731Z,20.70
2019-05-26T09:37:39.799Z,20.70
2019-05-26T09:40:09.114Z,20.70
2019-05-26T09:42:35.175Z,20.60
2019-05-26T09:45:01.255Z,20.30
2019-05-26T09:47:27.328Z,20.20
2019-05-26T09:49:53.418Z,20.30
2019-05-26T09:52:19.493Z,20.50
2019-05-26T09:54:45.568Z,21.20
2019-05-26T09:57:11.651Z,21.60
2019-05-26T09:59:37.758Z,21.90
2019-05-26T10:02:04.643Z,22.40
2019-05-26T10:04:30.716Z,22.10
2019-05-26T10:06:56.891Z,22.00
2019-05-26T10:09:22.957Z,22.40
2019-05-26T10:11:49.082Z,23.00
2019-05-26T10:14:15.155Z,23.30
2019-05-26T10:16:41.224Z,23.30
2019-05-26T10:19:07.332Z,23.20
2019-05-26T10:21:33.403Z,23.40
2019-05-26T10:23:59.466Z,23.20
2019-05-26T10:26:25.522Z,23.00
2019-05-26T10:28:51.688Z,22.80
2019-05-26T10:31:17.715Z,22.70
2019-05-26T10:33:43.768Z,22.60
2019-05-26T10:36:09.821Z,22.40
2019-05-26T10:38:35.868Z,21.70
2019-05-26T10:41:01.911Z,21.10
2019-05-26T10:43:27.956Z,20.90
2019-05-26T10:45:54.005Z,21.10
2019-05-26T10:48:20.092Z,21.60
2019-05-26T10:50:46.158Z,22.30
2019-05-26T10:53:12.236Z,22.70
2019-05-26T10:55:38.300Z,22.50
2019-05-26T10:58:04.472Z,22.30
2019-05-26T11:00:33.006Z,22.50
2019-05-26T11:02:58.565Z,22.90
2019-05-26T11:05:24.643Z,23.20
2019-05-26T11:07:50.729Z,22.80
2019-05-26T11:10:17.695Z,22.70
2019-05-26T11:12:43.798Z,22.50
2019-05-26T11:15:11.970Z,22.80
2019-05-26T11:17:38.052Z,23.40
2019-05-26T11:20:06.837Z,23.00
2019-05-26T11:22:32.899Z,22.00
2019-05-26T11:24:59.014Z,21.70
2019-05-26T11:27:25.113Z,21.60
2019-05-26T11:30:12.167Z,22.20
2019-05-26T11:32:38.283Z,22.70
2019-05-26T11:35:05.752Z,22.80
2019-05-26T11:37:31.919Z,22.50
2019-05-26T11:39:58.007Z,22.50
2019-05-26T11:42:24.067Z,22.40
2019-05-26T11:44:50.156Z,21.80
2019-05-26T11:47:16.223Z,21.50
2019-05-26T11:49:42.315Z,21.80
2019-05-26T11:52:08.522Z,21.50
2019-05-26T11:54:34.887Z,21.60
2019-05-26T11:57:01.039Z,22.10
2019-05-26T11:59:27.121Z,22.80
2019-05-26T12:01:53.568Z,23.80
2019-05-26T12:04:19.680Z,24.30
2019-05-26T12:06:45.828Z,24.30
2019-05-26T12:09:11.904Z,23.50
2019-05-26T12:11:37.975Z,23.00
2019-05-26T12:14:04.073Z,23.10
2019-05-26T12:16:30.135Z,23.30
2019-05-26T12:18:56.221Z,23.80
2019-05-26T12:21:22.283Z,24.10
2019-05-26T12:23:48.377Z,24.40
2019-05-26T12:26:14.439Z,24.40
2019-05-26T12:28:40.529Z,24.40
2019-05-26T12:31:06.604Z,24.40
2019-05-26T12:33:32.692Z,24.50
2019-05-26T12:35:58.772Z,24.70
2019-05-26T12:38:24.936Z,24.20
2019-05-26T12:40:50.991Z,23.60
2019-05-26T12:43:17.059Z,23.10
2019-05-26T12:45:43.142Z,23.20
2019-05-26T12:48:09.222Z,23.80
2019-05-26T12:50:35.499Z,24.20
2019-05-26T12:53:03.327Z,24.70
2019-05-26T12:55:29.518Z,25.80
2019-05-26T12:57:55.584Z,26.80
2019-05-26T13:00:22.370Z,27.40
2019-05-26T13:02:48.552Z,28.10
2019-05-26T13:05:15.512Z,27.20
2019-05-26T13:07:41.576Z,26.30
2019-05-26T13:10:08.386Z,25.70
2019-05-26T13:12:34.449Z,25.30
2019-05-26T13:15:05.895Z,25.00
2019-05-26T13:17:28.517Z,24.90
2019-05-26T13:19:54.599Z,24.90
2019-05-26T13:22:20.680Z,24.70
2019-05-26T13:24:46.768Z,24.80
2019-05-26T13:27:12.943Z,24.60
2019-05-26T13:29:40.315Z,24.00
2019-05-26T13:32:06.390Z,24.00
2019-05-26T13:34:35.560Z,24.30
2019-05-26T13:37:00.455Z,24.70
2019-05-26T13:39:26.551Z,24.80
2019-05-26T13:41:52.611Z,25.30
2019-05-26T13:44:18.705Z,25.90
2019-05-26T13:46:44.771Z,26.10
2019-05-26T13:49:10.995Z,26.30
2019-05-26T13:51:37.175Z,26.60
2019-05-26T13:54:03.652Z,26.80
2019-05-26T13:56:29.711Z,26.80
2019-05-26T13:58:55.799Z,26.60
2019-05-26T14:01:21.888Z,26.20
2019-05-26T14:03:47.968Z,26.00
2019-05-26T14:06:14.069Z,26.40
2019-05-26T14:08:40.251Z,27.80
2019-05-26T14:11:06.422Z,28.60
2019-05-26T14:13:32.619Z,28.80
2019-05-26T14:16:00.007Z,28.70
2019-05-26T14:18:26.875Z,29.90
2019-05-26T14:20:52.977Z,30.60
2019-05-26T14:23:19.150Z,30.20
2019-05-26T14:25:45.236Z,28.30
2019-05-26T14:28:11.308Z,27.10
2019-05-26T14:30:37.390Z,26.20
2019-05-26T14:33:04.155Z,25.50
2019-05-26T14:35:30.250Z,24.90
2019-05-26T14:37:56.315Z,24.40
2019-05-26T14:40:22.388Z,24.00
2019-05-26T14:42:48.459Z,23.70
2019-05-26T14:45:14.928Z,23.70
2019-05-26T14:47:40.999Z,23.90
2019-05-26T14:50:08.204Z,24.10
2019-05-26T14:52:34.405Z,24.50
2019-05-26T14:55:00.564Z,25.10
2019-05-26T14:57:26.739Z,25.50
2019-05-26T14:59:52.877Z,25.60
2019-05-26T15:02:19.061Z,25.90
2019-05-26T15:04:45.208Z,26.30
2019-05-26T15:07:11.272Z,26.80
2019-05-26T15:09:37.327Z,27.30
2019-05-26T15:12:03.524Z,27.90
2019-05-26T15:14:29.596Z,28.80
2019-05-26T15:16:55.675Z,30.00
2019-05-26T15:19:21.743Z,31.10
2019-05-26T15:21:47.824Z,31.80
2019-05-26T15:24:13.899Z,32.10
2019-05-26T15:26:39.984Z,32.20
2019-05-26T15:29:06.055Z,32.00
2019-05-26T15:31:32.398Z,31.40
2019-05-26T15:33:58.464Z,31.20
2019-05-26T15:36:24.556Z,31.20
2019-05-26T15:38:51.228Z,31.30
2019-05-26T15:41:17.307Z,32.20
2019-05-26T15:43:43.680Z,32.60
2019-05-26T15:46:23.905Z,32.30
2019-05-26T15:48:37.748Z,31.80
2019-05-26T15:51:04.147Z,31.70
2019-05-26T15:53:30.226Z,31.70
2019-05-26T15:55:56.313Z,32.00
2019-05-26T15:58:22.489Z,32.20
2019-05-26T16:00:48.588Z,32.70
2019-05-26T16:03:14.671Z,33.50
2019-05-26T16:05:40.766Z,33.70
2019-05-26T16:08:06.848Z,33.40
2019-05-26T16:10:32.935Z,32.60
2019-05-26T16:12:59.004Z,32.20
2019-05-26T16:15:25.287Z,31.70
2019-05-26T16:17:51.374Z,31.70
2019-05-26T16:20:17.957Z,32.60
2019-05-26T16:22:44.024Z,32.20
2019-05-26T16:25:10.405Z,32.30
2019-05-26T16:27:36.582Z,33.30
2019-05-26T16:30:06.355Z,33.30
2019-05-26T16:32:32.439Z,32.50
2019-05-26T16:34:58.519Z,32.00
2019-05-26T16:37:24.609Z,31.70
2019-05-26T16:39:50.681Z,31.30
2019-05-26T16:42:16.753Z,31.50
2019-05-26T16:44:42.806Z,32.00
2019-05-26T16:47:09.035Z,32.90
2019-05-26T16:49:35.119Z,33.30
2019-05-26T16:52:01.302Z,32.80
2019-05-26T16:54:27.373Z,33.50
2019-05-26T16:56:53.451Z,34.10
2019-05-26T16:59:19.529Z,33.20
2019-05-26T17:01:45.730Z,32.70
2019-05-26T17:04:11.807Z,32.40
2019-05-26T17:06:37.879Z,31.70
2019-05-26T17:09:06.373Z,30.50
2019-05-26T17:11:32.740Z,29.60
2019-05-26T17:13:58.823Z,29.00
2019-05-26T17:16:25.102Z,28.00
2019-05-26T17:18:51.229Z,27.50
2019-05-26T17:21:17.367Z,27.10
2019-05-26T17:23:43.447Z,26.70
2019-05-26T17:26:09.511Z,26.40
2019-05-26T17:28:35.671Z,26.10
2019-05-26T17:31:02.260Z,25.80
2019-05-26T17:33:28.323Z,25.60
2019-05-26T17:35:54.410Z,25.20
2019-05-26T17:38:20.480Z,24.50
2019-05-26T17:40:46.564Z,23.70
2019-05-26T17:43:12.739Z,23.20
2019-05-26T17:45:38.802Z,22.90
2019-05-26T17:48:04.886Z,22.70
2019-05-26T17:50:31.051Z,22.50
2019-05-26T17:52:57.124Z,22.40
2019-05-26T17:55:23.192Z,22.20
2019-05-26T17:57:49.392Z,21.80
2019-05-26T18:00:16.062Z,21.40
2019-05-26T18:02:42.136Z,21.10
2019-05-26T18:05:08.418Z,20.90
2019-05-26T18:07:34.484Z,20.60
2019-05-26T18:10:00.777Z,20.40
2019-05-26T18:12:26.841Z,20.20
2019-05-26T18:14:53.044Z,20.20
2019-05-26T18:17:19.316Z,20.20
2019-05-26T18:19:45.382Z,20.00
2019-05-26T18:22:11.471Z,19.80
2019-05-26T18:24:37.535Z,19.70
2019-05-26T18:27:03.602Z,19.60
2019-05-26T18:29:29.681Z,19.50
2019-05-26T18:31:55.779Z,19.30
2019-05-26T18:34:21.966Z,19.10
2019-05-26T18:36:48.039Z,18.80
2019-05-26T18:39:14.107Z,18.60
2019-05-26T18:41:40.191Z,18.30
2019-05-26T18:44:06.257Z,18.00
2019-05-26T18:46:32.376Z,17.70
2019-05-26T18:48:58.532Z,17.50
2019-05-26T18:51:24.631Z,17.20
2019-05-26T18:53:50.696Z,17.00
2019-05-26T18:56:16.783Z,16.70
2019-05-26T18:58:42.860Z,16.50
2019-05-26T19:01:08.998Z,16.40
2019-05-26T19:03:35.127Z,16.40
2019-05-26T19:06:01.215Z,16.20
2019-05-26T19:08:27.409Z,16.10
2019-05-26T19:10:53.470Z,15.90
2019-05-26T19:13:19.537Z,15.70
2019-05-26T19:15:45.604Z,15.60
2019-05-26T19:18:19.918Z,15.40
2019-05-26T19:20:39.668Z,15.30
2019-05-26T19:23:05.755Z,15.30
2019-05-26T19:25:31.846Z,15.30
2019-05-26T19:27:58.028Z,15.10
2019-05-26T19:30:24.192Z,15.00
2019-05-26T19:32:50.322Z,14.90
2019-05-26T19:35:16.554Z,14.80
2019-05-26T19:37:42.641Z,14.70
2019-05-26T19:40:09.907Z,14.60
2019-05-26T19:42:36.098Z,14.60
2019-05-26T19:45:06.379Z,14.50
2019-05-26T19:47:32.459Z,14.40
2019-05-26T19:49:58.533Z,14.40
2019-05-26T19:52:24.620Z,14.40
2019-05-26T19:54:50.692Z,14.40
2019-05-26T19:57:16.773Z,14.40
2019-05-26T19:59:42.850Z,14.40
2019-05-26T20:02:18.414Z,14.40
2019-05-26T20:04:37.080Z,14.30
2019-05-26T20:07:04.201Z,14.10
2019-05-26T20:09:30.350Z,14.00
2019-05-26T20:11:58.661Z,13.90
2019-05-26T20:14:24.751Z,13.90
2019-05-26T20:16:50.847Z,13.90
2019-05-26T20:19:17.014Z,13.80
2019-05-26T20:21:43.098Z,13.80
2019-05-26T20:24:09.191Z,13.90
2019-05-26T20:26:35.293Z,14.00
2019-05-26T20:29:01.400Z,14.00
2019-05-26T20:31:27.462Z,13.90
2019-05-26T20:33:53.548Z,13.80
2019-05-26T20:36:19.731Z,13.60
2019-05-26T20:38:45.796Z,13.50
2019-05-26T20:41:11.859Z,13.40
2019-05-26T20:43:37.935Z,13.40
2019-05-26T20:46:04.003Z,13.30
2019-05-26T20:48:30.103Z,13.30
2019-05-26T20:50:56.159Z,13.30
2019-05-26T20:53:22.245Z,13.30
2019-05-26T20:55:48.323Z,13.40
2019-05-26T20:58:14.416Z,13.40
2019-05-26T21:00:40.492Z,13.40
2019-05-26T21:03:06.589Z,13.30
2019-05-26T21:05:32.685Z,13.30
2019-05-26T21:07:58.753Z,13.30
2019-05-26T21:10:24.848Z,13.30
2019-05-26T21:12:51.145Z,13.30
2019-05-26T21:15:17.402Z,13.20
2019-05-26T21:17:43.579Z,13.10
2019-05-26T21:20:10.396Z,13.20
2019-05-26T21:22:36.472Z,13.20
2019-05-26T21:25:03.999Z,13.20
2019-05-26T21:27:30.159Z,13.20
2019-05-26T21:29:56.252Z,13.20
2019-05-26T21:32:22.333Z,13.20
2019-05-26T21:34:48.407Z,13.20
2019-05-26T21:37:14.479Z,13.20
2019-05-26T21:39:40.565Z,13.10
2019-05-26T21:42:06.627Z,13.10
2019-05-26T21:44:32.727Z,13.20
2019-05-26T21:46:58.808Z,13.20
2019-05-26T21:49:24.992Z,13.10
2019-05-26T21:51:51.101Z,13.10
2019-05-26T21:54:18.722Z,13.00
2019-05-26T21:56:44.815Z,13.00
2019-05-26T21:59:10.900Z,13.10
2019-05-26T22:01:37.432Z,13.00
2019-05-26T22:04:04.215Z,13.00
2019-05-26T22:06:30.387Z,13.00
2019-05-26T22:08:56.468Z,13.00
2019-05-26T22:11:22.556Z,13.00
2019-05-26T22:13:48.644Z,13.10
2019-05-26T22:16:14.716Z,13.10
2019-05-26T22:18:40.801Z,13.00
2019-05-26T22:21:06.875Z,13.10
2019-05-26T22:23:32.961Z,13.00
2019-05-26T22:25:59.128Z,13.00
2019-05-26T22:28:25.411Z,13.00
2019-05-26T22:30:51.491Z,13.00
2019-05-26T22:33:17.555Z,13.00
2019-05-26T22:35:43.659Z,13.00
2019-05-26T22:38:09.737Z,13.00
2019-05-26T22:40:35.819Z,13.00
2019-05-26T22:43:01.889Z,12.90
2019-05-26T22:45:27.976Z,12.90
2019-05-26T22:47:55.107Z,12.90
2019-05-26T22:50:21.710Z,12.90
2019-05-26T22:52:47.772Z,12.90
2019-05-26T22:55:14.069Z,12.90
2019-05-26T22:57:40.141Z,12.90
2019-05-26T23:00:09.464Z,12.90
2019-05-26T23:02:35.637Z,12.80
2019-05-26T23:05:01.927Z,12.90
2019-05-26T23:07:28.006Z,12.90
2019-05-26T23:09:54.124Z,13.00
2019-05-26T23:12:20.296Z,12.90
2019-05-26T23:14:46.429Z,12.80
2019-05-26T23:17:12.667Z,12.80
2019-05-26T23:19:38.737Z,12.80
2019-05-26T23:22:04.843Z,12.80
2019-05-26T23:24:30.979Z,12.80
2019-05-26T23:26:57.120Z,12.80
2019-05-26T23:29:23.210Z,12.70
2019-05-26T23:31:49.322Z,12.80
2019-05-26T23:34:15.479Z,12.80
2019-05-26T23:36:41.549Z,12.70
2019-05-26T23:39:08.840Z,12.70
2019-05-26T23:41:35.009Z,12.70
2019-05-26T23:44:01.100Z,12.60
2019-05-26T23:46:27.164Z,12.60
2019-05-26T23:48:53.233Z,12.60
2019-05-26T23:51:19.316Z,12.50
2019-05-26T23:53:45.385Z,12.50
2019-05-26T23:56:11.458Z,12.50
2019-05-26T23:58:37.531Z,12.50
